Terminal Aerodrome Forecast
Issued by NWS Twin Cities, MN

Home | Current Version | Previous Version | Text Only | Print | Product List | Glossary Off
Versions: 1 2 3 4 5 6 7 8 9 10 11 12 13 14 15 16

000
FTUS43 KMPX 191700
TAFEAU
TAF
KEAU 191738Z 1918/2018 20013G19KT P6SM SCT050 BKN250
     FM200000 18005KT P6SM SCT100 BKN200
     FM200600 18008KT P6SM SCT070 BKN200
     FM201400 18011KT P6SM SCT060 BKN200=

USA.gov is the U.S. government's official web portal to all federal, state and local government web resources and services.